Time;durP1;ratioP1;P1;durP2;ratioP2;P2;SDS_P1;SDS_P2;PMS_P1;PMS_P2;Temp;Humidity;BMP_temperature;BMP_pressure;BME280_temperature;BME280_humidity;BME280_pressure;Samples;Min_cycle;Max_cycle;Signal;HPM_P1;HPM_P2
2023/02/22 00:01:49;;;;;;;15.40;14.40;;;18.80;66.20;;;;;;5053759;28;20450;-62
2023/02/22 00:04:19;;;;;;;16.63;15.53;;;18.70;67.00;;;;;;5053714;28;20450;-62
2023/02/22 00:06:49;;;;;;;16.53;15.20;;;18.70;66.30;;;;;;5053575;28;20444;-62
2023/02/22 00:09:19;;;;;;;16.23;15.07;;;18.80;66.40;;;;;;5048220;28;20456;-62
2023/02/22 00:11:47;;;;;;;16.83;15.83;;;18.70;66.40;;;;;;5053611;28;20452;-62
2023/02/22 00:14:14;;;;;;;15.77;14.80;;;18.70;66.50;;;;;;5053679;28;20448;-63
2023/02/22 00:16:41;;;;;;;16.13;14.90;;;18.70;66.50;;;;;;5053319;28;20446;-62
2023/02/22 00:19:09;;;;;;;17.90;16.60;;;18.70;66.60;;;;;;5043059;28;21066;-62
2023/02/22 00:21:36;;;;;;;17.63;16.63;;;18.60;66.50;;;;;;5033727;28;20456;-64
2023/02/22 00:24:21;;;;;;;17.30;16.30;;;18.60;66.60;;;;;;5033495;28;20483;-63
2023/02/22 00:26:49;;;;;;;16.97;15.97;;;18.60;66.80;;;;;;5038487;28;20455;-63
2023/02/22 00:29:15;;;;;;;15.90;15.00;;;18.60;67.00;;;;;;5054500;28;20835;-63
2023/02/22 00:31:43;;;;;;;15.77;14.83;;;18.60;67.10;;;;;;5053550;28;20818;-63
2023/02/22 00:34:10;;;;;;;17.00;15.50;;;18.60;67.30;;;;;;5052116;28;20450;-64
2023/02/22 00:36:36;;;;;;;16.77;15.80;;;18.50;67.20;;;;;;5053342;28;20939;-63
2023/02/22 00:39:06;;;;;;;18.03;16.60;;;18.50;67.20;;;;;;5053154;28;20480;-64
2023/02/22 00:41:33;;;;;;;16.53;15.63;;;18.50;67.10;;;;;;5053900;28;20448;-64
2023/02/22 00:44:00;;;;;;;16.43;15.33;;;18.50;67.30;;;;;;5043737;28;20978;-64
2023/02/22 00:46:26;;;;;;;16.40;15.40;;;18.50;67.40;;;;;;5034106;28;20532;-64
2023/02/22 00:48:53;;;;;;;15.67;14.87;;;18.50;67.50;;;;;;5034043;28;21011;-64
2023/02/22 00:51:20;;;;;;;17.27;16.07;;;18.50;67.50;;;;;;5034945;28;20541;-64
2023/02/22 00:53:47;;;;;;;15.13;14.33;;;18.50;67.90;;;;;;5042301;28;20452;-64
2023/02/22 00:56:15;;;;;;;17.40;16.40;;;18.50;67.50;;;;;;5054079;28;20440;-64
2023/02/22 00:58:43;;;;;;;17.23;16.13;;;18.50;67.60;;;;;;5054331;28;20547;-63
2023/02/22 01:01:10;;;;;;;17.20;16.07;;;18.40;68.30;;;;;;5054314;28;20498;-63
2023/02/22 01:03:40;;;;;;;15.73;14.53;;;18.40;67.70;;;;;;5033767;28;20460;-63
2023/02/22 01:06:07;;;;;;;17.17;16.10;;;18.40;67.70;;;;;;5032440;28;20453;-63
2023/02/22 01:08:33;;;;;;;16.13;15.07;;;18.40;67.70;;;;;;5032163;28;20451;-64
2023/02/22 01:11:00;;;;;;;18.50;17.43;;;18.40;67.80;;;;;;5032588;28;20551;-64
2023/02/22 01:13:28;;;;;;;16.80;15.70;;;18.40;68.70;;;;;;5050860;28;20894;-64
2023/02/22 01:15:55;;;;;;;16.23;15.23;;;18.40;67.90;;;;;;5052309;28;20448;-64
2023/02/22 01:18:22;;;;;;;17.80;16.77;;;18.40;68.00;;;;;;5052385;28;20440;-63
2023/02/22 01:20:49;;;;;;;16.90;15.90;;;18.30;67.90;;;;;;5052065;28;20490;-63
2023/02/22 01:23:16;;;;;;;16.63;15.63;;;18.40;68.00;;;;;;5035382;28;21030;-63
2023/02/22 01:25:43;;;;;;;17.50;16.37;;;18.30;67.90;;;;;;5032113;28;20493;-64
2023/02/22 01:28:10;;;;;;;16.80;15.80;;;18.30;67.90;;;;;;5032122;28;20867;-64
2023/02/22 01:30:38;;;;;;;15.67;14.77;;;18.30;67.90;;;;;;5032143;28;20546;-64
2023/02/22 01:33:07;;;;;;;16.33;15.33;;;18.30;67.80;;;;;;5032535;28;20445;-64
2023/02/22 01:35:37;;;;;;;15.03;14.33;;;18.30;67.80;;;;;;5032032;28;20447;-63
2023/02/22 01:38:04;;;;;;;15.50;14.70;;;18.30;67.80;;;;;;5032060;28;20445;-63
2023/02/22 01:40:33;;;;;;;15.53;14.73;;;18.30;67.80;;;;;;5031944;28;20484;-63
2023/02/22 01:43:03;;;;;;;17.23;16.20;;;18.30;67.90;;;;;;5045766;28;20938;-63
2023/02/22 01:45:44;;;;;;;16.70;15.60;;;18.30;68.00;;;;;;5051941;28;20462;-64
2023/02/22 01:48:14;;;;;;;16.17;15.27;;;18.20;68.00;;;;;;5035682;28;20826;-64
2023/02/22 01:50:45;;;;;;;15.50;14.57;;;18.20;68.60;;;;;;5031861;28;20477;-63
2023/02/22 01:53:15;;;;;;;16.20;15.20;;;18.20;67.90;;;;;;5046802;28;20540;-63
2023/02/22 01:55:43;;;;;;;16.00;15.10;;;18.20;67.80;;;;;;5051674;28;20454;-64
2023/02/22 01:58:10;;;;;;;15.27;14.40;;;18.20;67.80;;;;;;5051686;28;20439;-63
2023/02/22 02:00:39;;;;;;;16.97;15.47;;;18.20;67.80;;;;;;5051564;28;20506;-63
2023/02/22 02:03:11;;;;;;;15.47;14.77;;;18.20;67.90;;;;;;5037232;28;20445;-63
2023/02/22 02:05:38;;;;;;;15.10;14.30;;;18.20;68.00;;;;;;5031572;28;20441;-63
2023/02/22 02:08:15;;;;;;;14.83;14.03;;;18.20;68.00;;;;;;5031653;28;20456;-63
2023/02/22 02:10:42;;;;;;;15.20;14.40;;;18.20;68.00;;;;;;5039323;28;20566;-63
2023/02/22 02:13:10;;;;;;;15.70;14.90;;;18.10;67.90;;;;;;5051520;28;20455;-63
2023/02/22 02:15:39;;;;;;;14.77;14.10;;;18.10;67.90;;;;;;5046280;28;20445;-63
2023/02/22 02:18:09;;;;;;;15.40;14.60;;;18.20;68.00;;;;;;5031448;28;20875;-63
2023/02/22 02:20:42;;;;;;;14.87;14.07;;;18.10;67.90;;;;;;5040157;28;20482;-63
2023/02/22 02:23:28;;;;;;;15.80;15.00;;;18.10;67.80;;;;;;5055591;28;20506;-63
2023/02/22 02:26:37;;;;;;;16.93;16.13;;;18.20;68.00;;;;;;5055349;28;20957;-64
2023/02/22 02:29:30;;;;;;;16.57;15.80;;;18.10;67.90;;;;;;5029796;28;20852;-63
2023/02/22 02:32:23;;;;;;;16.27;15.37;;;18.10;68.00;;;;;;5037458;28;20961;-61
2023/02/22 02:34:54;;;;;;;15.90;15.20;;;18.10;68.10;;;;;;5035364;28;20484;-63
2023/02/22 02:37:29;;;;;;;16.03;15.23;;;18.10;68.20;;;;;;5035417;28;20455;-63
2023/02/22 02:40:10;;;;;;;14.90;14.20;;;18.10;68.30;;;;;;5049777;28;20485;-63
2023/02/22 02:42:43;;;;;;;15.63;14.83;;;18.00;68.10;;;;;;5055722;28;20447;-64
2023/02/22 02:45:17;;;;;;;16.20;15.30;;;18.10;68.30;;;;;;5055546;28;20450;-64
2023/02/22 02:47:51;;;;;;;15.40;14.60;;;18.10;68.20;;;;;;5055509;28;20446;-64
2023/02/22 02:50:22;;;;;;;15.70;14.90;;;18.00;68.10;;;;;;5037221;28;20479;-64
2023/02/22 02:52:51;;;;;;;14.20;13.50;;;18.00;68.10;;;;;;5035298;28;20463;-64
2023/02/22 02:55:19;;;;;;;15.00;14.20;;;18.10;69.00;;;;;;5034978;28;20445;-64
2023/02/22 02:57:46;;;;;;;16.33;15.40;;;18.10;68.10;;;;;;5036147;28;20447;-64
2023/02/22 03:00:22;;;;;;;15.20;14.40;;;18.10;68.10;;;;;;5034943;28;21000;-64
2023/02/22 03:03:06;;;;;;;14.53;13.83;;;18.10;68.00;;;;;;5035145;28;20472;-63
2023/02/22 03:05:47;;;;;;;14.33;13.73;;;18.10;68.00;;;;;;5034789;28;20444;-63
2023/02/22 03:08:19;;;;;;;14.30;13.50;;;18.10;68.10;;;;;;5034754;28;20455;-64
2023/02/22 03:10:56;;;;;;;14.43;13.83;;;18.00;68.00;;;;;;5034748;28;20465;-64
2023/02/22 03:13:30;;;;;;;14.40;13.70;;;18.00;68.10;;;;;;5034629;28;20459;-64
2023/02/22 03:16:11;;;;;;;15.97;15.17;;;18.00;68.00;;;;;;5034571;28;20478;-64
2023/02/22 03:18:50;;;;;;;14.53;13.83;;;18.00;68.10;;;;;;5034694;28;20535;-64
2023/02/22 03:21:24;;;;;;;15.23;14.43;;;18.00;68.10;;;;;;5034495;28;20576;-64
2023/02/22 03:24:02;;;;;;;16.70;15.70;;;17.90;68.00;;;;;;5034589;28;20452;-63
2023/02/22 03:26:36;;;;;;;15.03;14.33;;;17.90;68.10;;;;;;5034336;28;20445;-63
2023/02/22 03:29:06;;;;;;;15.97;15.03;;;18.00;68.20;;;;;;5034570;28;20939;-63
2023/02/22 03:31:37;;;;;;;14.77;14.03;;;18.00;68.30;;;;;;5034100;28;20441;-61
2023/02/22 03:34:11;;;;;;;15.10;14.40;;;18.00;68.30;;;;;;5034308;28;20449;-63
2023/02/22 03:36:43;;;;;;;15.10;14.40;;;18.00;68.50;;;;;;5034196;28;20447;-63
2023/02/22 03:39:15;;;;;;;16.20;15.47;;;18.00;68.50;;;;;;5034368;28;20924;-63
2023/02/22 03:41:50;;;;;;;14.27;13.57;;;18.00;68.50;;;;;;5034322;28;20890;-63
2023/02/22 03:44:21;;;;;;;15.50;14.70;;;18.00;68.50;;;;;;5034004;28;20804;-63
2023/02/22 03:46:50;;;;;;;15.33;14.63;;;18.00;68.50;;;;;;5034074;28;20441;-63
2023/02/22 03:49:33;;;;;;;15.27;14.57;;;18.00;68.60;;;;;;5034019;28;20483;-63
2023/02/22 03:52:01;;;;;;;15.33;14.40;;;17.90;68.40;;;;;;5034223;28;20449;-61
2023/02/22 03:54:29;;;;;;;15.07;14.37;;;18.00;68.60;;;;;;5033643;28;20447;-63
2023/02/22 03:57:00;;;;;;;15.10;14.33;;;18.00;68.60;;;;;;5033626;28;20445;-63
2023/02/22 03:59:28;;;;;;;14.70;14.00;;;17.90;68.50;;;;;;5033894;28;20467;-64
2023/02/22 04:01:55;;;;;;;15.17;14.37;;;17.90;68.50;;;;;;5033839;28;20488;-63
2023/02/22 04:04:24;;;;;;;14.77;13.93;;;17.90;69.40;;;;;;5033157;28;20452;-64
2023/02/22 04:06:52;;;;;;;14.87;14.20;;;17.90;68.50;;;;;;5033650;28;20445;-63
2023/02/22 04:09:19;;;;;;;15.27;14.27;;;17.90;68.60;;;;;;5033664;28;20469;-63
2023/02/22 04:11:46;;;;;;;14.97;14.27;;;17.90;68.60;;;;;;5033672;28;20969;-64
2023/02/22 04:14:14;;;;;;;15.67;14.77;;;17.90;68.60;;;;;;5033416;28;20484;-63
2023/02/22 04:16:41;;;;;;;15.80;15.00;;;17.90;68.50;;;;;;5033446;28;20449;-63
2023/02/22 04:19:07;;;;;;;14.70;14.00;;;17.90;68.60;;;;;;5033476;28;20541;-64
2023/02/22 04:21:35;;;;;;;14.87;14.17;;;17.90;68.50;;;;;;5033266;28;20560;-64
2023/02/22 04:24:02;;;;;;;15.40;14.60;;;17.90;68.50;;;;;;5033525;28;20835;-63
2023/02/22 04:26:29;;;;;;;14.03;13.33;;;17.90;68.60;;;;;;5033241;28;20802;-64
2023/02/22 04:28:56;;;;;;;14.07;13.40;;;17.90;68.60;;;;;;5033343;28;20532;-64
2023/02/22 04:31:23;;;;;;;13.40;12.90;;;17.90;68.50;;;;;;5033073;28;20437;-64
2023/02/22 04:33:50;;;;;;;13.80;13.10;;;17.90;68.50;;;;;;5033435;28;20883;-64
2023/02/22 04:36:16;;;;;;;15.30;14.33;;;17.90;68.50;;;;;;5033118;28;20444;-64
2023/02/22 04:38:45;;;;;;;13.90;13.30;;;17.90;68.50;;;;;;5033236;28;20452;-63
2023/02/22 04:41:11;;;;;;;13.80;13.13;;;17.90;68.60;;;;;;5032806;28;20485;-63
2023/02/22 04:43:38;;;;;;;14.67;13.80;;;17.90;68.70;;;;;;5032252;28;21043;-63
2023/02/22 04:46:05;;;;;;;14.00;13.30;;;17.90;68.60;;;;;;5032996;28;20556;-64
2023/02/22 04:48:32;;;;;;;14.27;13.47;;;17.80;68.50;;;;;;5033113;28;20455;-64
2023/02/22 04:50:59;;;;;;;15.43;14.60;;;17.80;68.40;;;;;;5032540;28;21071;-64
2023/02/22 04:53:26;;;;;;;14.17;13.30;;;17.80;68.30;;;;;;5032894;28;20877;-64
2023/02/22 04:55:54;;;;;;;14.20;13.50;;;17.80;68.30;;;;;;5032681;28;20537;-64
2023/02/22 04:58:21;;;;;;;14.20;13.50;;;17.80;68.30;;;;;;5032679;28;20445;-64
2023/02/22 05:00:48;;;;;;;14.70;13.87;;;17.80;68.40;;;;;;5032310;28;20477;-64
2023/02/22 05:03:15;;;;;;;15.47;14.63;;;17.80;68.50;;;;;;5032783;28;20449;-64
2023/02/22 05:05:42;;;;;;;13.37;12.77;;;17.80;68.40;;;;;;5032531;28;20932;-63
2023/02/22 05:08:09;;;;;;;15.37;14.47;;;17.80;68.30;;;;;;5032528;28;20936;-64
2023/02/22 05:10:35;;;;;;;15.50;14.90;;;17.80;68.30;;;;;;5032319;28;20551;-64
2023/02/22 05:13:04;;;;;;;14.80;14.00;;;17.80;68.40;;;;;;5032613;28;20472;-64
2023/02/22 05:15:32;;;;;;;16.00;15.20;;;17.80;68.30;;;;;;5031759;28;20503;-63
2023/02/22 05:17:58;;;;;;;13.90;13.30;;;17.80;68.30;;;;;;5032377;28;20535;-63
2023/02/22 05:20:27;;;;;;;15.67;14.87;;;17.80;68.30;;;;;;5031947;28;20551;-64
2023/02/22 05:22:54;;;;;;;14.70;13.90;;;17.80;68.20;;;;;;5032263;28;20445;-63
2023/02/22 05:25:21;;;;;;;14.30;13.60;;;17.80;68.30;;;;;;5032144;28;20455;-64
2023/02/22 05:27:52;;;;;;;15.93;14.83;;;17.80;68.20;;;;;;5032153;28;20452;-64
2023/02/22 05:30:23;;;;;;;14.60;13.90;;;17.80;68.20;;;;;;5031858;28;20477;-64
2023/02/22 05:32:49;;;;;;;14.40;13.60;;;17.80;68.20;;;;;;5032235;28;20946;-63
2023/02/22 05:35:17;;;;;;;13.33;12.73;;;17.80;68.20;;;;;;5032476;28;20467;-66
2023/02/22 05:37:43;;;;;;;15.40;14.60;;;17.70;68.40;;;;;;5032412;28;20445;-66
2023/02/22 05:40:13;;;;;;;14.70;13.90;;;17.80;68.40;;;;;;5032418;28;20560;-66
2023/02/22 05:42:41;;;;;;;16.00;15.27;;;17.80;68.30;;;;;;5032241;28;21076;-66
2023/02/22 05:45:09;;;;;;;21.23;19.60;;;17.80;68.00;;;;;;5032004;28;20527;-66
2023/02/22 05:47:37;;;;;;;16.43;15.03;;;17.80;68.20;;;;;;5031874;28;20452;-66
2023/02/22 05:50:04;;;;;;;19.20;16.97;;;17.80;69.00;;;;;;5041401;22;21059;-61
2023/02/22 05:52:31;;;;;;;22.50;17.90;;;17.80;71.40;;;;;;5000572;28;20441;-61
2023/02/22 05:54:58;;;;;;;18.80;17.10;;;17.90;74.50;;;;;;5009447;28;20813;-61
2023/02/22 05:57:25;;;;;;;28.30;18.30;;;17.90;75.50;;;;;;4997267;28;20942;-62
2023/02/22 05:59:51;;;;;;;19.93;18.10;;;17.90;80.20;;;;;;5003961;28;20469;-62
2023/02/22 06:02:18;;;;;;;20.07;17.63;;;17.90;84.40;;;;;;5072361;28;20574;-63
2023/02/22 06:04:47;;;;;;;21.40;17.63;;;17.90;85.50;;;;;;5073192;28;20554;-64
2023/02/22 06:07:14;;;;;;;19.73;17.90;;;17.90;87.50;;;;;;5063839;28;20453;-63
2023/02/22 06:09:41;;;;;;;18.20;16.40;;;17.90;90.00;;;;;;4989832;28;20475;-63
2023/02/22 06:12:08;;;;;;;20.50;16.80;;;17.90;90.60;;;;;;4989623;28;20439;-62
2023/02/22 06:14:36;;;;;;;18.00;15.93;;;17.90;90.20;;;;;;4989629;28;20454;-67
2023/02/22 06:17:04;;;;;;;18.70;16.60;;;18.00;90.00;;;;;;4989463;28;20449;-61
2023/02/22 06:19:31;;;;;;;18.77;16.90;;;18.00;90.30;;;;;;4974416;28;20467;-63
2023/02/22 06:22:01;;;;;;;21.27;19.03;;;18.00;90.80;;;;;;4989197;28;20483;-64
2023/02/22 06:24:28;;;;;;;17.80;16.27;;;18.00;90.70;;;;;;4991745;28;20454;-63
2023/02/22 06:26:55;;;;;;;16.80;15.67;;;18.00;90.00;;;;;;4988923;28;20534;-64
2023/02/22 06:29:22;;;;;;;17.20;15.80;;;18.00;89.50;;;;;;4989215;28;20454;-64
2023/02/22 06:31:49;;;;;;;17.90;16.37;;;18.00;89.10;;;;;;4989268;28;20443;-64
2023/02/22 06:34:16;;;;;;;17.17;15.50;;;18.00;88.00;;;;;;4989257;28;20553;-63
2023/02/22 06:36:43;;;;;;;17.80;15.77;;;18.00;87.50;;;;;;4988990;28;20526;-64
2023/02/22 06:39:11;;;;;;;17.40;15.70;;;18.00;86.70;;;;;;4989191;28;20453;-64
2023/02/22 06:41:38;;;;;;;16.03;14.90;;;17.90;85.80;;;;;;4989038;28;20483;-65
2023/02/22 06:44:05;;;;;;;16.30;14.70;;;18.00;85.60;;;;;;4989111;28;20572;-64
2023/02/22 06:46:32;;;;;;;16.57;15.47;;;18.00;84.90;;;;;;4988847;28;20884;-65
2023/02/22 06:48:59;;;;;;;15.80;14.43;;;18.00;84.70;;;;;;4989026;28;20443;-64
2023/02/22 06:51:26;;;;;;;15.80;14.50;;;18.00;84.10;;;;;;4988907;28;20846;-64
2023/02/22 06:53:53;;;;;;;15.93;14.50;;;17.90;83.50;;;;;;4988927;28;20889;-64
2023/02/22 06:56:21;;;;;;;17.27;15.67;;;17.90;83.10;;;;;;4988859;28;20442;-64
2023/02/22 06:58:48;;;;;;;22.40;17.20;;;17.90;82.60;;;;;;4988865;28;20534;-63
2023/02/22 07:01:15;;;;;;;14.70;13.80;;;18.00;82.30;;;;;;4988888;28;20490;-63
2023/02/22 07:03:42;;;;;;;16.43;14.73;;;17.90;81.80;;;;;;4988918;28;20527;-64
2023/02/22 07:06:10;;;;;;;15.63;14.73;;;17.90;81.50;;;;;;4989625;28;20450;-63
2023/02/22 07:08:37;;;;;;;16.00;15.00;;;17.90;81.20;;;;;;4992089;28;20454;-64
2023/02/22 07:11:04;;;;;;;15.23;14.07;;;17.90;80.80;;;;;;4992046;28;20550;-64
2023/02/22 07:13:32;;;;;;;15.30;14.17;;;17.90;80.40;;;;;;4991996;28;20449;-64
2023/02/22 07:15:59;;;;;;;15.80;14.60;;;17.90;80.20;;;;;;4991902;28;20907;-64
2023/02/22 07:18:26;;;;;;;15.37;14.13;;;17.90;80.70;;;;;;4992026;28;20573;-64
2023/02/22 07:20:53;;;;;;;16.97;15.77;;;17.90;79.50;;;;;;4991867;28;20840;-64
2023/02/22 07:23:21;;;;;;;16.23;14.93;;;17.90;79.40;;;;;;4991990;28;20447;-64
2023/02/22 07:25:48;;;;;;;14.67;13.77;;;17.90;79.00;;;;;;4991659;28;20447;-65
2023/02/22 07:28:15;;;;;;;15.70;14.50;;;17.90;78.70;;;;;;4991832;28;20446;-64
2023/02/22 07:30:44;;;;;;;14.73;13.63;;;17.90;78.50;;;;;;4991794;28;20830;-64
2023/02/22 07:33:12;;;;;;;14.77;13.97;;;17.90;78.30;;;;;;4991801;28;20443;-64
2023/02/22 07:35:45;;;;;;;15.53;14.60;;;17.90;77.90;;;;;;4991753;28;20450;-64
2023/02/22 07:38:13;;;;;;;14.27;13.50;;;17.90;77.90;;;;;;4991754;28;20949;-64
2023/02/22 07:40:41;;;;;;;14.80;13.53;;;17.90;77.70;;;;;;4991660;28;20467;-65
2023/02/22 07:43:15;;;;;;;14.50;13.63;;;17.90;77.40;;;;;;4991614;28;20484;-64
2023/02/22 07:45:44;;;;;;;13.77;13.10;;;17.90;77.10;;;;;;4991572;28;20502;-63
2023/02/22 07:48:12;;;;;;;15.30;14.20;;;17.90;77.00;;;;;;4991497;28;20443;-64
2023/02/22 07:50:39;;;;;;;15.03;14.13;;;17.90;76.70;;;;;;4991366;28;20479;-65
2023/02/22 07:53:09;;;;;;;15.03;14.23;;;17.80;76.40;;;;;;4991539;28;20937;-64
2023/02/22 07:55:36;;;;;;;13.87;13.20;;;17.90;76.40;;;;;;4991326;28;20453;-64
2023/02/22 07:58:05;;;;;;;14.27;13.50;;;17.80;76.20;;;;;;4991522;28;20446;-65
2023/02/22 08:00:34;;;;;;;13.47;12.83;;;17.80;76.00;;;;;;4991664;28;21090;-64
2023/02/22 08:03:04;;;;;;;14.87;14.07;;;17.80;75.80;;;;;;4991358;28;20493;-64
2023/02/22 08:05:33;;;;;;;16.47;15.43;;;17.80;75.70;;;;;;4991090;28;20453;-64
2023/02/22 08:08:00;;;;;;;15.17;14.47;;;17.80;75.60;;;;;;4991274;28;20448;-64
2023/02/22 08:10:27;;;;;;;15.80;15.00;;;17.80;75.50;;;;;;4991213;28;20601;-64
2023/02/22 08:12:54;;;;;;;15.70;14.80;;;17.80;75.30;;;;;;4991221;28;20439;-65
2023/02/22 08:15:24;;;;;;;15.13;14.43;;;17.80;75.20;;;;;;4991024;28;20446;-63
2023/02/22 08:17:52;;;;;;;15.87;14.87;;;17.80;75.00;;;;;;4989778;28;20442;-64
2023/02/22 08:20:20;;;;;;;16.13;15.13;;;17.80;74.90;;;;;;4991114;28;20528;-65
2023/02/22 08:22:47;;;;;;;16.70;15.23;;;17.80;74.70;;;;;;4990851;28;20491;-64
2023/02/22 08:25:15;;;;;;;13.73;13.07;;;17.80;74.70;;;;;;4990829;28;20938;-64
2023/02/22 08:27:43;;;;;;;14.73;14.00;;;17.80;74.50;;;;;;4991010;28;20447;-64
2023/02/22 08:30:14;;;;;;;15.93;14.77;;;17.80;74.40;;;;;;4990838;28;20875;-64
2023/02/22 08:32:41;;;;;;;14.50;13.90;;;17.80;74.30;;;;;;4990967;28;20949;-65
2023/02/22 08:35:08;;;;;;;15.83;15.00;;;17.80;74.20;;;;;;4990824;28;20530;-64
2023/02/22 08:37:36;;;;;;;14.57;13.80;;;17.80;74.00;;;;;;4990642;28;20447;-64
2023/02/22 08:40:03;;;;;;;15.23;14.53;;;17.80;74.00;;;;;;4990810;28;20723;-64
2023/02/22 08:42:30;;;;;;;14.40;13.60;;;17.80;73.80;;;;;;4990781;28;20489;-65
2023/02/22 08:44:57;;;;;;;14.20;13.30;;;17.80;73.80;;;;;;4990764;28;21013;-64
2023/02/22 08:47:24;;;;;;;14.00;13.40;;;17.80;73.50;;;;;;4990474;28;20478;-64
2023/02/22 08:49:50;;;;;;;14.13;13.43;;;17.80;73.50;;;;;;4990564;28;20481;-64
2023/02/22 08:52:17;;;;;;;13.57;12.77;;;17.80;73.40;;;;;;4990724;28;20534;-65
2023/02/22 08:54:46;;;;;;;14.40;13.70;;;17.80;73.40;;;;;;4990698;28;20813;-64
2023/02/22 08:57:13;;;;;;;14.10;13.50;;;17.80;73.20;;;;;;4990383;28;20474;-64
2023/02/22 08:59:41;;;;;;;14.17;13.53;;;17.80;73.20;;;;;;4990393;28;20469;-64
2023/02/22 09:02:15;;;;;;;14.00;13.10;;;17.80;73.10;;;;;;4990414;28;20493;-64
2023/02/22 09:04:42;;;;;;;14.43;13.77;;;17.80;73.00;;;;;;4990354;28;20446;-64
2023/02/22 09:07:09;;;;;;;13.87;13.07;;;17.80;72.80;;;;;;4990263;28;20898;-64
2023/02/22 09:09:36;;;;;;;14.70;14.00;;;17.80;72.80;;;;;;4990350;28;20489;-64
2023/02/22 09:12:05;;;;;;;13.33;12.73;;;17.80;72.70;;;;;;4990439;28;20451;-65
2023/02/22 09:14:32;;;;;;;14.43;13.73;;;17.80;72.50;;;;;;4990368;28;20443;-64
2023/02/22 09:16:59;;;;;;;13.67;13.07;;;17.80;72.60;;;;;;4990127;28;20451;-64
2023/02/22 09:19:26;;;;;;;14.13;13.40;;;17.80;72.50;;;;;;4990165;28;20960;-64
2023/02/22 09:21:53;;;;;;;13.60;13.00;;;17.80;72.40;;;;;;4990126;28;20485;-64
2023/02/22 09:24:20;;;;;;;14.27;13.67;;;17.80;72.30;;;;;;4990226;28;20447;-63
2023/02/22 09:26:52;;;;;;;14.33;13.73;;;17.80;72.20;;;;;;4990019;28;20874;-63
2023/02/22 09:29:22;;;;;;;13.40;12.90;;;17.80;72.10;;;;;;4989625;28;20455;-63
2023/02/22 09:31:51;;;;;;;14.33;13.83;;;17.80;72.00;;;;;;4990099;28;20972;-65
2023/02/22 09:34:19;;;;;;;14.30;13.50;;;17.80;72.00;;;;;;4990170;28;20454;-65
2023/02/22 09:36:47;;;;;;;13.50;13.00;;;17.80;72.00;;;;;;4989869;28;20443;-64
2023/02/22 09:39:14;;;;;;;13.37;12.87;;;17.80;71.90;;;;;;4990009;28;20443;-64
2023/02/22 09:41:50;;;;;;;14.07;13.47;;;17.80;71.80;;;;;;4989911;28;20526;-64
2023/02/22 09:44:24;;;;;;;14.80;14.00;;;17.80;71.70;;;;;;4989868;28;20451;-64
2023/02/22 09:46:55;;;;;;;13.47;12.87;;;17.80;71.60;;;;;;4989653;28;20458;-64
2023/02/22 09:49:24;;;;;;;13.77;13.17;;;17.80;71.60;;;;;;4989700;28;20453;-64
2023/02/22 09:51:58;;;;;;;13.83;13.20;;;17.80;71.50;;;;;;4989705;28;20447;-63
2023/02/22 09:54:33;;;;;;;14.10;13.50;;;17.80;71.50;;;;;;4989887;28;20476;-63
2023/02/22 09:57:03;;;;;;;12.97;12.37;;;17.80;71.50;;;;;;4989522;28;20817;-64
2023/02/22 09:59:37;;;;;;;13.57;13.07;;;17.80;71.30;;;;;;4989694;28;20926;-64
2023/02/22 10:02:18;;;;;;;13.70;13.20;;;17.80;71.30;;;;;;4989642;28;20818;-64
2023/02/22 10:04:52;;;;;;;14.03;13.37;;;17.80;71.30;;;;;;4989661;28;20554;-64
2023/02/22 10:07:25;;;;;;;13.07;12.47;;;17.70;71.10;;;;;;4989390;28;20451;-64
2023/02/22 10:09:55;;;;;;;12.90;12.40;;;17.80;71.20;;;;;;4989479;28;20475;-64
2023/02/22 10:12:32;;;;;;;13.40;12.93;;;17.80;71.10;;;;;;4989516;28;20450;-64
2023/02/22 10:15:31;;;;;;;13.40;12.80;;;17.80;71.10;;;;;;4989548;28;20443;-64
2023/02/22 10:18:12;;;;;;;13.40;12.90;;;17.80;71.00;;;;;;4984853;28;20451;-64
2023/02/22 10:20:51;;;;;;;12.77;12.27;;;17.70;71.00;;;;;;4989397;28;20981;-64
2023/02/22 10:23:25;;;;;;;12.90;12.40;;;17.80;70.90;;;;;;4989336;28;20483;-64
2023/02/22 10:25:56;;;;;;;13.40;12.90;;;17.80;71.00;;;;;;4989216;28;20451;-64
2023/02/22 10:28:29;;;;;;;13.30;12.80;;;17.70;70.80;;;;;;4989443;28;20451;-64
2023/02/22 10:31:03;;;;;;;13.20;12.67;;;17.80;70.90;;;;;;4989175;28;20471;-63
2023/02/22 10:33:36;;;;;;;13.27;12.80;;;17.80;70.80;;;;;;4989207;28;20532;-64
2023/02/22 10:36:03;;;;;;;13.77;13.13;;;17.80;70.80;;;;;;4989042;28;20450;-64
2023/02/22 10:38:33;;;;;;;12.50;12.10;;;17.80;70.80;;;;;;4989089;28;20456;-63
2023/02/22 10:41:15;;;;;;;13.33;12.83;;;17.80;70.70;;;;;;4990096;28;20974;-64
2023/02/22 10:43:43;;;;;;;13.97;13.47;;;17.80;70.80;;;;;;4992566;28;20489;-64
2023/02/22 10:46:16;;;;;;;13.50;12.70;;;17.80;70.70;;;;;;4992366;28;20443;-64
2023/02/22 10:48:47;;;;;;;12.70;12.30;;;17.80;70.70;;;;;;4992668;28;20457;-63
2023/02/22 10:51:14;;;;;;;12.83;12.33;;;17.80;70.60;;;;;;4992228;28;20481;-64
2023/02/22 10:53:41;;;;;;;13.33;12.73;;;17.80;70.50;;;;;;4992566;28;20526;-64
2023/02/22 10:56:20;;;;;;;13.83;13.23;;;17.80;70.50;;;;;;4992160;28;20538;-64
2023/02/22 10:58:50;;;;;;;15.03;14.43;;;17.80;70.50;;;;;;4992373;28;20957;-64
2023/02/22 11:01:39;;;;;;;13.70;13.20;;;17.80;70.50;;;;;;4992297;28;20473;-65
2023/02/22 11:04:12;;;;;;;14.10;13.37;;;17.80;70.50;;;;;;4992320;28;20482;-64
2023/02/22 11:06:40;;;;;;;14.73;14.17;;;17.80;70.40;;;;;;4992280;28;20447;-64
2023/02/22 11:09:11;;;;;;;13.97;13.47;;;17.80;70.40;;;;;;4992207;28;20463;-64
2023/02/22 11:11:40;;;;;;;16.93;16.23;;;17.80;70.40;;;;;;4992458;28;20865;-64
2023/02/22 11:14:09;;;;;;;14.13;13.63;;;17.80;70.40;;;;;;4992168;28;20533;-64
2023/02/22 11:16:40;;;;;;;14.00;13.60;;;17.80;70.30;;;;;;4992017;28;20451;-64
2023/02/22 11:19:19;;;;;;;14.60;14.10;;;17.80;70.40;;;;;;4992158;28;20443;-65
2023/02/22 11:21:47;;;;;;;14.60;14.10;;;17.80;70.30;;;;;;4992081;28;20475;-64
2023/02/22 11:24:15;;;;;;;15.10;14.40;;;17.80;70.30;;;;;;4991900;28;20482;-65
2023/02/22 11:26:45;;;;;;;14.07;13.40;;;17.80;70.20;;;;;;4991829;28;20525;-64
2023/02/22 11:29:19;;;;;;;13.60;12.90;;;17.80;70.20;;;;;;4992199;28;20466;-64
2023/02/22 11:31:49;;;;;;;14.10;13.70;;;17.80;70.10;;;;;;4992062;28;20449;-64
2023/02/22 11:34:35;;;;;;;15.00;14.50;;;17.80;70.10;;;;;;4991743;28;20435;-64
2023/02/22 11:37:29;;;;;;;14.83;14.20;;;17.80;70.10;;;;;;4991643;28;20930;-64
2023/02/22 11:40:06;;;;;;;14.03;13.63;;;17.80;70.10;;;;;;4991849;28;20833;-65
2023/02/22 11:42:32;;;;;;;13.73;13.30;;;17.80;70.00;;;;;;4991718;28;20842;-64
2023/02/22 11:45:09;;;;;;;13.63;13.13;;;17.80;70.00;;;;;;4991689;28;21025;-64
2023/02/22 11:47:52;;;;;;;13.37;12.97;;;17.80;70.00;;;;;;4991579;28;20447;-63
2023/02/22 11:50:27;;;;;;;13.67;13.17;;;17.80;69.90;;;;;;5010574;22;20492;-66
2023/02/22 11:53:04;;;;;;;14.03;13.53;;;17.80;69.90;;;;;;5010727;28;20442;-66
2023/02/22 11:55:36;;;;;;;13.73;13.27;;;17.80;69.80;;;;;;5011077;28;20962;-66
2023/02/22 11:58:13;;;;;;;13.20;12.70;;;17.80;69.80;;;;;;5011100;28;20452;-64
2023/02/22 12:00:52;;;;;;;13.07;12.47;;;17.80;69.80;;;;;;5011083;28;20462;-66
2023/02/22 12:04:06;;;;;;;13.87;13.40;;;17.80;69.70;;;;;;5011014;28;20481;-64
2023/02/22 12:06:41;;;;;;;12.20;11.80;;;17.80;69.70;;;;;;5022498;28;20446;-64
2023/02/22 12:09:15;;;;;;;13.20;12.70;;;17.80;69.60;;;;;;5010910;28;20448;-64
2023/02/22 12:11:51;;;;;;;12.70;12.30;;;17.90;69.60;;;;;;5011052;28;20466;-61
2023/02/22 12:14:26;;;;;;;13.13;12.73;;;17.90;69.60;;;;;;5010914;28;20895;-64
2023/02/22 12:17:29;;;;;;;12.60;12.20;;;17.90;69.60;;;;;;5010693;28;20827;-66
2023/02/22 12:20:05;;;;;;;12.30;11.80;;;17.90;69.50;;;;;;5010808;28;20996;-67
2023/02/22 12:22:35;;;;;;;12.17;11.77;;;17.90;69.40;;;;;;5010679;28;20852;-61
2023/02/22 12:25:07;;;;;;;13.47;13.07;;;17.90;69.30;;;;;;5010811;28;20791;-63
2023/02/22 12:27:40;;;;;;;12.90;12.40;;;17.90;69.20;;;;;;5010625;28;20447;-67
2023/02/22 12:30:15;;;;;;;12.70;12.30;;;17.90;69.20;;;;;;5010724;28;20474;-65
2023/02/22 12:32:46;;;;;;;12.60;12.20;;;17.90;69.10;;;;;;5010612;28;20457;-67
2023/02/22 12:35:20;;;;;;;12.57;12.13;;;17.90;69.00;;;;;;5010458;28;20446;-67
2023/02/22 12:38:01;;;;;;;12.00;11.70;;;17.90;69.10;;;;;;5010578;28;20954;-67
2023/02/22 12:40:35;;;;;;;11.97;11.57;;;17.90;69.10;;;;;;5010403;28;20832;-66
2023/02/22 12:43:09;;;;;;;12.40;12.00;;;17.90;68.90;;;;;;5010240;28;20485;-66
2023/02/22 12:45:41;;;;;;;13.37;12.93;;;17.90;68.90;;;;;;5010489;28;20453;-65